sensor_id;sensor_type;location;lat;lon;timestamp;P1;durP1;ratioP1;P2;durP2;ratioP2
47167;SDS011;32931;47.778;17.806;2024-01-30T00:00:15;49.70;;;23.80;;
47167;SDS011;32931;47.778;17.806;2024-01-30T00:02:42;42.67;;;22.08;;
47167;SDS011;32931;47.778;17.806;2024-01-30T00:05:08;52.55;;;22.77;;
47167;SDS011;32931;47.778;17.806;2024-01-30T00:07:34;44.13;;;23.85;;
47167;SDS011;32931;47.778;17.806;2024-01-30T00:10:00;46.97;;;23.50;;
47167;SDS011;32931;47.778;17.806;2024-01-30T00:12:27;43.17;;;22.05;;
47167;SDS011;32931;47.778;17.806;2024-01-30T00:14:53;45.88;;;22.40;;
47167;SDS011;32931;47.778;17.806;2024-01-30T00:17:19;45.45;;;22.67;;
47167;SDS011;32931;47.778;17.806;2024-01-30T00:19:46;43.33;;;22.63;;
47167;SDS011;32931;47.778;17.806;2024-01-30T00:22:12;46.78;;;21.73;;
47167;SDS011;32931;47.778;17.806;2024-01-30T00:24:38;50.38;;;23.45;;
47167;SDS011;32931;47.778;17.806;2024-01-30T00:27:04;43.67;;;23.13;;
47167;SDS011;32931;47.778;17.806;2024-01-30T00:29:30;42.85;;;23.00;;
47167;SDS011;32931;47.778;17.806;2024-01-30T00:31:59;43.95;;;21.48;;
47167;SDS011;32931;47.778;17.806;2024-01-30T00:34:25;44.40;;;22.63;;
47167;SDS011;32931;47.778;17.806;2024-01-30T00:36:51;46.65;;;23.55;;
47167;SDS011;32931;47.778;17.806;2024-01-30T00:39:17;41.67;;;22.33;;
47167;SDS011;32931;47.778;17.806;2024-01-30T00:41:45;46.53;;;22.38;;
47167;SDS011;32931;47.778;17.806;2024-01-30T00:44:11;40.92;;;21.65;;
47167;SDS011;32931;47.778;17.806;2024-01-30T00:46:37;46.53;;;23.17;;
47167;SDS011;32931;47.778;17.806;2024-01-30T00:49:03;42.60;;;22.23;;
47167;SDS011;32931;47.778;17.806;2024-01-30T00:51:29;42.28;;;21.75;;
47167;SDS011;32931;47.778;17.806;2024-01-30T00:53:55;45.38;;;23.00;;
47167;SDS011;32931;47.778;17.806;2024-01-30T00:56:21;43.55;;;22.52;;
47167;SDS011;32931;47.778;17.806;2024-01-30T00:58:48;41.67;;;22.50;;
47167;SDS011;32931;47.778;17.806;2024-01-30T01:01:15;46.22;;;24.10;;
47167;SDS011;32931;47.778;17.806;2024-01-30T01:03:41;41.22;;;22.17;;
47167;SDS011;32931;47.778;17.806;2024-01-30T01:06:09;40.63;;;23.10;;
47167;SDS011;32931;47.778;17.806;2024-01-30T01:08:36;45.92;;;23.20;;
47167;SDS011;32931;47.778;17.806;2024-01-30T01:11:02;46.80;;;22.45;;
47167;SDS011;32931;47.778;17.806;2024-01-30T01:13:29;45.33;;;23.52;;
47167;SDS011;32931;47.778;17.806;2024-01-30T01:15:55;46.38;;;23.20;;
47167;SDS011;32931;47.778;17.806;2024-01-30T01:18:21;44.08;;;23.85;;
47167;SDS011;32931;47.778;17.806;2024-01-30T01:20:47;45.67;;;22.88;;
47167;SDS011;32931;47.778;17.806;2024-01-30T01:23:13;52.90;;;23.05;;
47167;SDS011;32931;47.778;17.806;2024-01-30T01:25:39;46.90;;;23.33;;
47167;SDS011;32931;47.778;17.806;2024-01-30T01:28:06;48.25;;;23.10;;
47167;SDS011;32931;47.778;17.806;2024-01-30T01:30:32;44.20;;;23.65;;
47167;SDS011;32931;47.778;17.806;2024-01-30T01:32:58;44.97;;;21.92;;
47167;SDS011;32931;47.778;17.806;2024-01-30T01:35:26;42.38;;;22.40;;
47167;SDS011;32931;47.778;17.806;2024-01-30T01:37:53;47.40;;;23.88;;
47167;SDS011;32931;47.778;17.806;2024-01-30T01:40:25;42.90;;;22.77;;
47167;SDS011;32931;47.778;17.806;2024-01-30T01:42:52;47.47;;;24.00;;
47167;SDS011;32931;47.778;17.806;2024-01-30T01:45:20;39.50;;;21.92;;
47167;SDS011;32931;47.778;17.806;2024-01-30T01:47:50;42.03;;;22.67;;
47167;SDS011;32931;47.778;17.806;2024-01-30T01:50:17;41.47;;;22.23;;
47167;SDS011;32931;47.778;17.806;2024-01-30T01:52:44;38.55;;;21.67;;
47167;SDS011;32931;47.778;17.806;2024-01-30T01:55:12;39.97;;;22.48;;
47167;SDS011;32931;47.778;17.806;2024-01-30T01:57:40;40.78;;;22.02;;
47167;SDS011;32931;47.778;17.806;2024-01-30T02:00:07;43.33;;;22.85;;
47167;SDS011;32931;47.778;17.806;2024-01-30T02:02:36;44.10;;;22.58;;
47167;SDS011;32931;47.778;17.806;2024-01-30T02:05:02;38.90;;;22.25;;
47167;SDS011;32931;47.778;17.806;2024-01-30T02:07:29;46.20;;;23.42;;
47167;SDS011;32931;47.778;17.806;2024-01-30T02:09:55;41.20;;;22.40;;
47167;SDS011;32931;47.778;17.806;2024-01-30T02:12:22;43.33;;;22.40;;
47167;SDS011;32931;47.778;17.806;2024-01-30T02:14:48;47.92;;;23.08;;
47167;SDS011;32931;47.778;17.806;2024-01-30T02:17:15;43.17;;;22.33;;
47167;SDS011;32931;47.778;17.806;2024-01-30T02:19:42;44.15;;;22.00;;
47167;SDS011;32931;47.778;17.806;2024-01-30T02:22:08;45.03;;;22.25;;
47167;SDS011;32931;47.778;17.806;2024-01-30T02:24:35;42.78;;;22.45;;
47167;SDS011;32931;47.778;17.806;2024-01-30T02:27:01;40.58;;;21.45;;
47167;SDS011;32931;47.778;17.806;2024-01-30T02:29:27;40.70;;;22.27;;
47167;SDS011;32931;47.778;17.806;2024-01-30T02:31:53;39.25;;;21.77;;
47167;SDS011;32931;47.778;17.806;2024-01-30T02:34:20;43.88;;;23.35;;
47167;SDS011;32931;47.778;17.806;2024-01-30T02:36:46;39.10;;;21.92;;
47167;SDS011;32931;47.778;17.806;2024-01-30T02:39:12;39.53;;;22.17;;
47167;SDS011;32931;47.778;17.806;2024-01-30T02:41:38;40.05;;;22.10;;
47167;SDS011;32931;47.778;17.806;2024-01-30T02:44:05;44.58;;;23.30;;
47167;SDS011;32931;47.778;17.806;2024-01-30T02:46:31;41.88;;;21.98;;
47167;SDS011;32931;47.778;17.806;2024-01-30T02:48:57;38.67;;;22.10;;
47167;SDS011;32931;47.778;17.806;2024-01-30T02:51:23;43.55;;;23.08;;
47167;SDS011;32931;47.778;17.806;2024-01-30T02:53:49;40.90;;;21.85;;
47167;SDS011;32931;47.778;17.806;2024-01-30T02:56:15;46.15;;;23.48;;
47167;SDS011;32931;47.778;17.806;2024-01-30T02:58:41;41.35;;;22.73;;
47167;SDS011;32931;47.778;17.806;2024-01-30T03:01:08;46.33;;;24.13;;
47167;SDS011;32931;47.778;17.806;2024-01-30T03:03:34;45.78;;;23.98;;
47167;SDS011;32931;47.778;17.806;2024-01-30T03:06:01;44.70;;;23.50;;
47167;SDS011;32931;47.778;17.806;2024-01-30T03:08:27;46.70;;;23.08;;
47167;SDS011;32931;47.778;17.806;2024-01-30T03:10:54;44.40;;;24.42;;
47167;SDS011;32931;47.778;17.806;2024-01-30T03:13:21;42.13;;;24.60;;
47167;SDS011;32931;47.778;17.806;2024-01-30T03:15:48;44.47;;;22.73;;
47167;SDS011;32931;47.778;17.806;2024-01-30T03:18:15;44.83;;;23.88;;
47167;SDS011;32931;47.778;17.806;2024-01-30T03:20:41;51.28;;;25.13;;
47167;SDS011;32931;47.778;17.806;2024-01-30T03:23:07;47.42;;;25.38;;
47167;SDS011;32931;47.778;17.806;2024-01-30T03:25:33;42.97;;;23.67;;
47167;SDS011;32931;47.778;17.806;2024-01-30T03:27:59;45.35;;;24.50;;
47167;SDS011;32931;47.778;17.806;2024-01-30T03:30:25;40.78;;;23.58;;
47167;SDS011;32931;47.778;17.806;2024-01-30T03:32:51;44.97;;;24.17;;
47167;SDS011;32931;47.778;17.806;2024-01-30T03:35:18;41.38;;;23.17;;
47167;SDS011;32931;47.778;17.806;2024-01-30T03:37:45;46.08;;;23.58;;
47167;SDS011;32931;47.778;17.806;2024-01-30T03:40:11;48.47;;;23.52;;
47167;SDS011;32931;47.778;17.806;2024-01-30T03:42:37;40.85;;;23.83;;
47167;SDS011;32931;47.778;17.806;2024-01-30T03:45:04;39.42;;;22.05;;
47167;SDS011;32931;47.778;17.806;2024-01-30T03:47:30;41.08;;;21.95;;
47167;SDS011;32931;47.778;17.806;2024-01-30T03:49:56;42.63;;;23.73;;
47167;SDS011;32931;47.778;17.806;2024-01-30T03:52:23;43.97;;;23.00;;
47167;SDS011;32931;47.778;17.806;2024-01-30T03:54:49;38.55;;;22.10;;
47167;SDS011;32931;47.778;17.806;2024-01-30T03:57:15;45.67;;;22.17;;
47167;SDS011;32931;47.778;17.806;2024-01-30T03:59:42;37.60;;;21.08;;
47167;SDS011;32931;47.778;17.806;2024-01-30T04:02:09;39.35;;;22.23;;
47167;SDS011;32931;47.778;17.806;2024-01-30T04:04:36;37.97;;;22.00;;
47167;SDS011;32931;47.778;17.806;2024-01-30T04:07:03;41.33;;;22.33;;
47167;SDS011;32931;47.778;17.806;2024-01-30T04:09:29;39.67;;;22.45;;
47167;SDS011;32931;47.778;17.806;2024-01-30T04:11:55;40.65;;;22.25;;
47167;SDS011;32931;47.778;17.806;2024-01-30T04:14:21;45.10;;;22.60;;
47167;SDS011;32931;47.778;17.806;2024-01-30T04:16:47;41.00;;;24.00;;
47167;SDS011;32931;47.778;17.806;2024-01-30T04:19:13;39.38;;;21.90;;
47167;SDS011;32931;47.778;17.806;2024-01-30T04:21:39;43.50;;;23.35;;
47167;SDS011;32931;47.778;17.806;2024-01-30T04:24:06;45.13;;;22.55;;
47167;SDS011;32931;47.778;17.806;2024-01-30T04:26:32;44.85;;;23.10;;
47167;SDS011;32931;47.778;17.806;2024-01-30T04:28:58;38.70;;;22.35;;
47167;SDS011;32931;47.778;17.806;2024-01-30T04:31:24;39.88;;;21.33;;
47167;SDS011;32931;47.778;17.806;2024-01-30T04:33:50;37.70;;;21.17;;
47167;SDS011;32931;47.778;17.806;2024-01-30T04:36:16;38.38;;;22.92;;
47167;SDS011;32931;47.778;17.806;2024-01-30T04:38:43;43.22;;;23.02;;
47167;SDS011;32931;47.778;17.806;2024-01-30T04:41:09;39.50;;;22.83;;
47167;SDS011;32931;47.778;17.806;2024-01-30T04:43:35;43.00;;;23.10;;
47167;SDS011;32931;47.778;17.806;2024-01-30T04:46:01;40.00;;;21.88;;
47167;SDS011;32931;47.778;17.806;2024-01-30T04:48:27;44.05;;;21.63;;
47167;SDS011;32931;47.778;17.806;2024-01-30T04:50:53;38.42;;;21.00;;
47167;SDS011;32931;47.778;17.806;2024-01-30T04:53:21;39.72;;;21.67;;
47167;SDS011;32931;47.778;17.806;2024-01-30T04:55:47;40.47;;;21.92;;
47167;SDS011;32931;47.778;17.806;2024-01-30T04:58:13;39.33;;;21.85;;
47167;SDS011;32931;47.778;17.806;2024-01-30T05:00:39;37.85;;;22.08;;
47167;SDS011;32931;47.778;17.806;2024-01-30T05:03:06;40.08;;;21.77;;
47167;SDS011;32931;47.778;17.806;2024-01-30T05:05:32;41.30;;;22.45;;
47167;SDS011;32931;47.778;17.806;2024-01-30T05:07:58;39.15;;;21.92;;
47167;SDS011;32931;47.778;17.806;2024-01-30T05:10:24;41.60;;;22.05;;
47167;SDS011;32931;47.778;17.806;2024-01-30T05:12:50;43.58;;;23.10;;
47167;SDS011;32931;47.778;17.806;2024-01-30T05:15:16;38.22;;;21.55;;
47167;SDS011;32931;47.778;17.806;2024-01-30T05:17:42;42.45;;;22.00;;
47167;SDS011;32931;47.778;17.806;2024-01-30T05:20:09;45.50;;;24.05;;
47167;SDS011;32931;47.778;17.806;2024-01-30T05:22:36;44.75;;;23.00;;
47167;SDS011;32931;47.778;17.806;2024-01-30T05:25:03;48.28;;;24.33;;
47167;SDS011;32931;47.778;17.806;2024-01-30T05:27:30;41.80;;;22.95;;
47167;SDS011;32931;47.778;17.806;2024-01-30T05:29:56;43.28;;;23.08;;
47167;SDS011;32931;47.778;17.806;2024-01-30T05:32:22;42.28;;;22.40;;
47167;SDS011;32931;47.778;17.806;2024-01-30T05:34:48;46.50;;;23.38;;
47167;SDS011;32931;47.778;17.806;2024-01-30T05:37:16;42.67;;;23.20;;
47167;SDS011;32931;47.778;17.806;2024-01-30T05:39:43;38.35;;;22.25;;
47167;SDS011;32931;47.778;17.806;2024-01-30T05:42:09;41.35;;;22.17;;
47167;SDS011;32931;47.778;17.806;2024-01-30T05:44:35;41.90;;;23.65;;
47167;SDS011;32931;47.778;17.806;2024-01-30T05:47:01;43.30;;;21.92;;
47167;SDS011;32931;47.778;17.806;2024-01-30T05:49:28;43.45;;;22.48;;
47167;SDS011;32931;47.778;17.806;2024-01-30T05:51:54;39.78;;;21.02;;
47167;SDS011;32931;47.778;17.806;2024-01-30T05:54:20;45.67;;;22.67;;
47167;SDS011;32931;47.778;17.806;2024-01-30T05:56:46;41.92;;;22.88;;
47167;SDS011;32931;47.778;17.806;2024-01-30T05:59:12;38.08;;;22.45;;
47167;SDS011;32931;47.778;17.806;2024-01-30T06:01:38;48.60;;;21.90;;
47167;SDS011;32931;47.778;17.806;2024-01-30T06:04:12;43.70;;;21.55;;
47167;SDS011;32931;47.778;17.806;2024-01-30T06:06:38;44.53;;;22.45;;
47167;SDS011;32931;47.778;17.806;2024-01-30T06:09:04;42.78;;;23.15;;
47167;SDS011;32931;47.778;17.806;2024-01-30T06:11:30;42.47;;;21.42;;
47167;SDS011;32931;47.778;17.806;2024-01-30T06:13:56;46.67;;;23.42;;
47167;SDS011;32931;47.778;17.806;2024-01-30T06:16:22;40.88;;;22.83;;
47167;SDS011;32931;47.778;17.806;2024-01-30T06:18:49;40.08;;;22.73;;
47167;SDS011;32931;47.778;17.806;2024-01-30T06:21:15;44.15;;;23.17;;
47167;SDS011;32931;47.778;17.806;2024-01-30T06:23:41;42.28;;;22.85;;
47167;SDS011;32931;47.778;17.806;2024-01-30T06:26:07;38.83;;;22.00;;
47167;SDS011;32931;47.778;17.806;2024-01-30T06:28:33;42.00;;;23.25;;
47167;SDS011;32931;47.778;17.806;2024-01-30T06:31:00;47.60;;;22.92;;
47167;SDS011;32931;47.778;17.806;2024-01-30T06:33:27;41.72;;;22.45;;
47167;SDS011;32931;47.778;17.806;2024-01-30T06:35:53;42.03;;;22.70;;
47167;SDS011;32931;47.778;17.806;2024-01-30T06:38:19;38.72;;;21.98;;
47167;SDS011;32931;47.778;17.806;2024-01-30T06:40:45;43.05;;;22.83;;
47167;SDS011;32931;47.778;17.806;2024-01-30T06:43:11;45.70;;;23.02;;
47167;SDS011;32931;47.778;17.806;2024-01-30T06:45:37;41.53;;;22.63;;
47167;SDS011;32931;47.778;17.806;2024-01-30T06:48:04;46.75;;;23.33;;
47167;SDS011;32931;47.778;17.806;2024-01-30T06:50:30;42.88;;;22.92;;
47167;SDS011;32931;47.778;17.806;2024-01-30T06:52:56;44.10;;;24.65;;
47167;SDS011;32931;47.778;17.806;2024-01-30T06:55:22;42.70;;;26.50;;
47167;SDS011;32931;47.778;17.806;2024-01-30T06:57:48;43.45;;;24.25;;
47167;SDS011;32931;47.778;17.806;2024-01-30T07:00:15;43.45;;;25.90;;
47167;SDS011;32931;47.778;17.806;2024-01-30T07:02:41;42.15;;;25.00;;
47167;SDS011;32931;47.778;17.806;2024-01-30T07:05:07;40.90;;;23.90;;
47167;SDS011;32931;47.778;17.806;2024-01-30T07:07:33;43.75;;;23.50;;
47167;SDS011;32931;47.778;17.806;2024-01-30T07:10:00;45.00;;;24.65;;
47167;SDS011;32931;47.778;17.806;2024-01-30T07:12:26;45.33;;;25.88;;
47167;SDS011;32931;47.778;17.806;2024-01-30T07:14:53;45.75;;;25.45;;
47167;SDS011;32931;47.778;17.806;2024-01-30T07:17:19;46.53;;;25.50;;
47167;SDS011;32931;47.778;17.806;2024-01-30T07:19:45;42.45;;;25.35;;
47167;SDS011;32931;47.778;17.806;2024-01-30T07:22:11;41.22;;;24.20;;
47167;SDS011;32931;47.778;17.806;2024-01-30T07:24:41;44.03;;;24.95;;
47167;SDS011;32931;47.778;17.806;2024-01-30T07:27:10;48.13;;;25.95;;
47167;SDS011;32931;47.778;17.806;2024-01-30T07:29:36;42.55;;;24.65;;
47167;SDS011;32931;47.778;17.806;2024-01-30T07:32:02;44.53;;;24.90;;
47167;SDS011;32931;47.778;17.806;2024-01-30T07:34:28;40.45;;;24.70;;
47167;SDS011;32931;47.778;17.806;2024-01-30T07:36:54;45.00;;;25.40;;
47167;SDS011;32931;47.778;17.806;2024-01-30T07:39:21;45.25;;;25.38;;
47167;SDS011;32931;47.778;17.806;2024-01-30T07:41:47;49.10;;;26.27;;
47167;SDS011;32931;47.778;17.806;2024-01-30T07:44:13;47.28;;;26.25;;
47167;SDS011;32931;47.778;17.806;2024-01-30T07:46:39;43.63;;;26.02;;
47167;SDS011;32931;47.778;17.806;2024-01-30T07:49:05;46.90;;;25.75;;
47167;SDS011;32931;47.778;17.806;2024-01-30T07:51:31;49.35;;;24.45;;
47167;SDS011;32931;47.778;17.806;2024-01-30T07:53:58;51.15;;;24.85;;
47167;SDS011;32931;47.778;17.806;2024-01-30T07:56:24;44.85;;;25.17;;
47167;SDS011;32931;47.778;17.806;2024-01-30T07:58:50;42.53;;;25.08;;
47167;SDS011;32931;47.778;17.806;2024-01-30T08:01:17;45.33;;;25.40;;
47167;SDS011;32931;47.778;17.806;2024-01-30T08:03:43;44.88;;;25.10;;
47167;SDS011;32931;47.778;17.806;2024-01-30T08:06:09;48.95;;;25.50;;
47167;SDS011;32931;47.778;17.806;2024-01-30T08:08:35;50.80;;;30.98;;
47167;SDS011;32931;47.778;17.806;2024-01-30T08:11:03;45.42;;;28.00;;
47167;SDS011;32931;47.778;17.806;2024-01-30T08:13:29;49.40;;;29.65;;
47167;SDS011;32931;47.778;17.806;2024-01-30T08:15:55;44.78;;;25.13;;
47167;SDS011;32931;47.778;17.806;2024-01-30T08:18:21;44.42;;;25.10;;
47167;SDS011;32931;47.778;17.806;2024-01-30T08:20:48;39.33;;;23.30;;
47167;SDS011;32931;47.778;17.806;2024-01-30T08:23:14;37.78;;;21.73;;
47167;SDS011;32931;47.778;17.806;2024-01-30T08:25:40;42.58;;;22.33;;
47167;SDS011;32931;47.778;17.806;2024-01-30T08:28:06;35.97;;;20.98;;
47167;SDS011;32931;47.778;17.806;2024-01-30T08:30:33;39.58;;;21.92;;
47167;SDS011;32931;47.778;17.806;2024-01-30T08:32:59;35.05;;;20.33;;
47167;SDS011;32931;47.778;17.806;2024-01-30T08:35:25;36.50;;;19.77;;
47167;SDS011;32931;47.778;17.806;2024-01-30T08:37:51;37.38;;;21.85;;
47167;SDS011;32931;47.778;17.806;2024-01-30T08:40:19;39.38;;;22.35;;
47167;SDS011;32931;47.778;17.806;2024-01-30T08:42:45;40.30;;;21.48;;
47167;SDS011;32931;47.778;17.806;2024-01-30T08:45:11;37.45;;;23.70;;
47167;SDS011;32931;47.778;17.806;2024-01-30T08:47:38;37.88;;;23.38;;
47167;SDS011;32931;47.778;17.806;2024-01-30T08:50:04;39.35;;;22.85;;
47167;SDS011;32931;47.778;17.806;2024-01-30T08:52:30;43.20;;;23.92;;
47167;SDS011;32931;47.778;17.806;2024-01-30T08:54:57;43.13;;;24.42;;
47167;SDS011;32931;47.778;17.806;2024-01-30T08:57:23;52.67;;;31.25;;
47167;SDS011;32931;47.778;17.806;2024-01-30T08:59:49;46.63;;;29.02;;
47167;SDS011;32931;47.778;17.806;2024-01-30T09:02:15;41.05;;;25.08;;
47167;SDS011;32931;47.778;17.806;2024-01-30T09:04:43;42.92;;;26.35;;
47167;SDS011;32931;47.778;17.806;2024-01-30T09:07:09;42.50;;;24.30;;
47167;SDS011;32931;47.778;17.806;2024-01-30T09:09:37;42.40;;;25.00;;
47167;SDS011;32931;47.778;17.806;2024-01-30T09:12:05;38.97;;;24.48;;
47167;SDS011;32931;47.778;17.806;2024-01-30T09:14:35;41.80;;;24.50;;
47167;SDS011;32931;47.778;17.806;2024-01-30T09:17:01;38.88;;;23.90;;
47167;SDS011;32931;47.778;17.806;2024-01-30T09:19:28;49.47;;;25.88;;
47167;SDS011;32931;47.778;17.806;2024-01-30T09:21:55;45.10;;;24.33;;
47167;SDS011;32931;47.778;17.806;2024-01-30T09:24:21;50.28;;;25.42;;
47167;SDS011;32931;47.778;17.806;2024-01-30T09:26:47;44.53;;;25.10;;
47167;SDS011;32931;47.778;17.806;2024-01-30T09:29:13;40.63;;;24.05;;
47167;SDS011;32931;47.778;17.806;2024-01-30T09:31:42;47.75;;;25.40;;
47167;SDS011;32931;47.778;17.806;2024-01-30T09:34:12;42.47;;;24.63;;
47167;SDS011;32931;47.778;17.806;2024-01-30T09:36:39;39.95;;;25.63;;
47167;SDS011;32931;47.778;17.806;2024-01-30T09:39:05;45.47;;;25.45;;
47167;SDS011;32931;47.778;17.806;2024-01-30T09:41:32;43.78;;;25.30;;
47167;SDS011;32931;47.778;17.806;2024-01-30T09:44:02;40.83;;;24.13;;
47167;SDS011;32931;47.778;17.806;2024-01-30T09:46:31;41.15;;;25.38;;
47167;SDS011;32931;47.778;17.806;2024-01-30T09:48:59;44.85;;;25.17;;
47167;SDS011;32931;47.778;17.806;2024-01-30T09:51:26;42.10;;;26.13;;
47167;SDS011;32931;47.778;17.806;2024-01-30T09:53:53;42.50;;;24.98;;
47167;SDS011;32931;47.778;17.806;2024-01-30T09:56:20;45.67;;;26.33;;
47167;SDS011;32931;47.778;17.806;2024-01-30T09:58:47;39.97;;;24.55;;
47167;SDS011;32931;47.778;17.806;2024-01-30T10:01:14;40.03;;;25.30;;
47167;SDS011;32931;47.778;17.806;2024-01-30T10:03:44;42.83;;;25.95;;
47167;SDS011;32931;47.778;17.806;2024-01-30T10:06:11;39.95;;;24.73;;
47167;SDS011;32931;47.778;17.806;2024-01-30T10:08:37;39.53;;;24.15;;
47167;SDS011;32931;47.778;17.806;2024-01-30T10:11:03;41.97;;;24.92;;
47167;SDS011;32931;47.778;17.806;2024-01-30T10:13:30;38.47;;;23.67;;
47167;SDS011;32931;47.778;17.806;2024-01-30T10:15:56;38.63;;;23.38;;
47167;SDS011;32931;47.778;17.806;2024-01-30T10:18:23;48.35;;;24.73;;
47167;SDS011;32931;47.778;17.806;2024-01-30T10:20:49;41.63;;;24.92;;
47167;SDS011;32931;47.778;17.806;2024-01-30T10:23:16;40.80;;;24.98;;
47167;SDS011;32931;47.778;17.806;2024-01-30T10:25:44;38.72;;;23.30;;
47167;SDS011;32931;47.778;17.806;2024-01-30T10:28:11;40.78;;;23.88;;
47167;SDS011;32931;47.778;17.806;2024-01-30T10:30:37;40.90;;;24.45;;
47167;SDS011;32931;47.778;17.806;2024-01-30T10:33:03;41.75;;;22.98;;
47167;SDS011;32931;47.778;17.806;2024-01-30T10:35:29;48.85;;;28.65;;
47167;SDS011;32931;47.778;17.806;2024-01-30T10:37:56;37.45;;;24.05;;
47167;SDS011;32931;47.778;17.806;2024-01-30T10:40:24;39.08;;;24.70;;
47167;SDS011;32931;47.778;17.806;2024-01-30T10:42:54;39.75;;;24.67;;
47167;SDS011;32931;47.778;17.806;2024-01-30T10:45:21;45.78;;;25.13;;
47167;SDS011;32931;47.778;17.806;2024-01-30T10:47:48;37.80;;;24.88;;
47167;SDS011;32931;47.778;17.806;2024-01-30T10:50:15;38.17;;;24.02;;
47167;SDS011;32931;47.778;17.806;2024-01-30T10:52:42;43.60;;;24.52;;
47167;SDS011;32931;47.778;17.806;2024-01-30T10:55:09;42.42;;;23.70;;
47167;SDS011;32931;47.778;17.806;2024-01-30T10:57:35;37.85;;;22.38;;
47167;SDS011;32931;47.778;17.806;2024-01-30T11:00:03;36.05;;;22.73;;
47167;SDS011;32931;47.778;17.806;2024-01-30T11:02:36;41.88;;;22.70;;
47167;SDS011;32931;47.778;17.806;2024-01-30T11:05:07;39.47;;;22.70;;
47167;SDS011;32931;47.778;17.806;2024-01-30T11:07:34;35.78;;;22.58;;
47167;SDS011;32931;47.778;17.806;2024-01-30T11:10:03;36.75;;;22.67;;
47167;SDS011;32931;47.778;17.806;2024-01-30T11:12:32;32.60;;;21.60;;
47167;SDS011;32931;47.778;17.806;2024-01-30T11:15:06;32.42;;;19.73;;
47167;SDS011;32931;47.778;17.806;2024-01-30T11:17:43;31.17;;;15.70;;
47167;SDS011;32931;47.778;17.806;2024-01-30T11:22:46;35.47;;;20.42;;
47167;SDS011;32931;47.778;17.806;2024-01-30T11:25:14;31.60;;;17.48;;
47167;SDS011;32931;47.778;17.806;2024-01-30T11:27:41;28.05;;;14.35;;
47167;SDS011;32931;47.778;17.806;2024-01-30T11:30:08;21.90;;;12.13;;
47167;SDS011;32931;47.778;17.806;2024-01-30T11:32:35;20.38;;;12.10;;
47167;SDS011;32931;47.778;17.806;2024-01-30T11:35:04;22.55;;;13.05;;
47167;SDS011;32931;47.778;17.806;2024-01-30T11:37:32;19.30;;;12.55;;
47167;SDS011;32931;47.778;17.806;2024-01-30T11:40:02;23.85;;;12.60;;
47167;SDS011;32931;47.778;17.806;2024-01-30T11:42:29;20.38;;;12.02;;
47167;SDS011;32931;47.778;17.806;2024-01-30T11:44:56;25.85;;;12.48;;
47167;SDS011;32931;47.778;17.806;2024-01-30T11:47:22;22.98;;;12.63;;
47167;SDS011;32931;47.778;17.806;2024-01-30T11:49:48;20.92;;;12.05;;
47167;SDS011;32931;47.778;17.806;2024-01-30T11:52:14;18.30;;;11.75;;
47167;SDS011;32931;47.778;17.806;2024-01-30T11:54:41;23.58;;;13.00;;
47167;SDS011;32931;47.778;17.806;2024-01-30T11:57:08;20.48;;;13.02;;
47167;SDS011;32931;47.778;17.806;2024-01-30T11:59:34;23.83;;;13.30;;
47167;SDS011;32931;47.778;17.806;2024-01-30T12:02:00;24.55;;;13.70;;
47167;SDS011;32931;47.778;17.806;2024-01-30T12:04:28;29.23;;;12.88;;
47167;SDS011;32931;47.778;17.806;2024-01-30T12:06:55;39.15;;;14.32;;
47167;SDS011;32931;47.778;17.806;2024-01-30T12:09:21;22.30;;;13.02;;
47167;SDS011;32931;47.778;17.806;2024-01-30T12:11:48;24.05;;;12.98;;
47167;SDS011;32931;47.778;17.806;2024-01-30T12:14:17;22.77;;;13.40;;
47167;SDS011;32931;47.778;17.806;2024-01-30T12:16:48;24.17;;;13.43;;
47167;SDS011;32931;47.778;17.806;2024-01-30T12:19:22;21.25;;;13.02;;
47167;SDS011;32931;47.778;17.806;2024-01-30T12:24:19;21.63;;;12.75;;
47167;SDS011;32931;47.778;17.806;2024-01-30T12:26:45;25.77;;;13.00;;
47167;SDS011;32931;47.778;17.806;2024-01-30T12:29:11;21.45;;;12.93;;
47167;SDS011;32931;47.778;17.806;2024-01-30T12:31:41;19.90;;;13.35;;
47167;SDS011;32931;47.778;17.806;2024-01-30T12:34:09;19.80;;;12.30;;
47167;SDS011;32931;47.778;17.806;2024-01-30T12:36:35;22.30;;;12.63;;
47167;SDS011;32931;47.778;17.806;2024-01-30T12:39:01;24.00;;;13.07;;
47167;SDS011;32931;47.778;17.806;2024-01-30T12:41:27;24.45;;;13.15;;
47167;SDS011;32931;47.778;17.806;2024-01-30T12:43:56;20.20;;;12.35;;
47167;SDS011;32931;47.778;17.806;2024-01-30T12:46:29;20.00;;;12.43;;
47167;SDS011;32931;47.778;17.806;2024-01-30T12:48:55;23.40;;;12.95;;
47167;SDS011;32931;47.778;17.806;2024-01-30T12:51:21;26.63;;;12.75;;
47167;SDS011;32931;47.778;17.806;2024-01-30T12:53:47;20.83;;;12.77;;
47167;SDS011;32931;47.778;17.806;2024-01-30T12:56:14;27.80;;;12.65;;
47167;SDS011;32931;47.778;17.806;2024-01-30T12:58:40;21.83;;;13.27;;
47167;SDS011;32931;47.778;17.806;2024-01-30T13:01:08;23.35;;;13.20;;
47167;SDS011;32931;47.778;17.806;2024-01-30T13:03:35;19.77;;;12.43;;
47167;SDS011;32931;47.778;17.806;2024-01-30T13:06:01;22.23;;;13.27;;
47167;SDS011;32931;47.778;17.806;2024-01-30T13:08:28;22.60;;;13.82;;
47167;SDS011;32931;47.778;17.806;2024-01-30T13:10:54;29.95;;;14.82;;
47167;SDS011;32931;47.778;17.806;2024-01-30T13:13:20;25.48;;;14.95;;
47167;SDS011;32931;47.778;17.806;2024-01-30T13:15:47;26.02;;;15.48;;
47167;SDS011;32931;47.778;17.806;2024-01-30T13:18:13;23.20;;;15.32;;
47167;SDS011;32931;47.778;17.806;2024-01-30T13:20:40;25.75;;;16.08;;
47167;SDS011;32931;47.778;17.806;2024-01-30T13:23:06;29.23;;;16.92;;
47167;SDS011;32931;47.778;17.806;2024-01-30T13:25:32;28.67;;;16.88;;
47167;SDS011;32931;47.778;17.806;2024-01-30T13:27:58;31.70;;;18.70;;
47167;SDS011;32931;47.778;17.806;2024-01-30T13:30:24;29.35;;;17.73;;
47167;SDS011;32931;47.778;17.806;2024-01-30T13:32:50;31.50;;;19.25;;
47167;SDS011;32931;47.778;17.806;2024-01-30T13:35:16;33.55;;;22.02;;
47167;SDS011;32931;47.778;17.806;2024-01-30T13:37:43;41.40;;;24.23;;
47167;SDS011;32931;47.778;17.806;2024-01-30T13:40:09;35.17;;;21.73;;
47167;SDS011;32931;47.778;17.806;2024-01-30T13:42:36;36.22;;;21.10;;
47167;SDS011;32931;47.778;17.806;2024-01-30T13:45:02;31.08;;;17.98;;
47167;SDS011;32931;47.778;17.806;2024-01-30T13:47:28;28.38;;;17.83;;
47167;SDS011;32931;47.778;17.806;2024-01-30T13:49:55;29.33;;;17.73;;
47167;SDS011;32931;47.778;17.806;2024-01-30T13:52:21;28.50;;;17.77;;
47167;SDS011;32931;47.778;17.806;2024-01-30T13:54:47;45.28;;;18.88;;
47167;SDS011;32931;47.778;17.806;2024-01-30T13:57:13;29.70;;;18.60;;
47167;SDS011;32931;47.778;17.806;2024-01-30T13:59:39;30.17;;;19.92;;
47167;SDS011;32931;47.778;17.806;2024-01-30T14:02:05;31.88;;;19.23;;
47167;SDS011;32931;47.778;17.806;2024-01-30T14:04:33;29.95;;;19.52;;
47167;SDS011;32931;47.778;17.806;2024-01-30T14:06:59;33.33;;;18.70;;
47167;SDS011;32931;47.778;17.806;2024-01-30T14:09:26;31.50;;;19.23;;